Time,TemperatureF,DewpointF,PressureIn,WindDirection,WindDirectionDegrees,WindSpeedMPH,WindSpeedGustMPH,Humidity,HourlyPrecipIn,Conditions,Clouds,dailyrainin,SoftwareType,DateUTC
2013-01-31 00:01:00,20.8,-5.7,29.74,WSW,248,21.0,28.2,30,0.00,,---,0.00,VWS V14.01,2013-01-31 06:01:00,
2013-01-31 00:06:00,20.8,-5.7,29.74,SW,225,26.4,26.4,30,0.00,,---,0.00,VWS V14.01,2013-01-31 06:06:00,
2013-01-31 00:11:00,18.3,-11.6,29.74,West,264,34.9,34.9,25,0.00,,---,0.00,VWS V14.01,2013-01-31 06:11:00,
2013-01-31 00:16:00,18.1,-11.8,29.74,WSW,244,22.8,30.9,25,0.00,,---,0.00,VWS V14.01,2013-01-31 06:16:00,
2013-01-31 00:21:00,17.8,-12.1,29.74,WSW,239,30.9,30.9,25,0.00,,---,0.00,VWS V14.01,2013-01-31 06:21:00,
2013-01-31 00:26:00,17.8,-12.1,29.74,West,265,21.0,25.5,25,0.00,,---,0.00,VWS V14.01,2013-01-31 06:26:00,
2013-01-31 00:31:00,18.0,-11.9,29.74,WSW,255,27.3,27.3,25,0.00,,---,0.00,VWS V14.01,2013-01-31 06:31:00,
2013-01-31 00:36:00,18.3,-11.6,29.74,WSW,242,34.9,34.9,25,0.00,,---,0.00,VWS V14.01,2013-01-31 06:36:00,
2013-01-31 00:41:00,18.3,-11.6,29.74,West,265,24.6,26.4,25,0.00,,---,0.00,VWS V14.01,2013-01-31 06:41:00,
2013-01-31 00:46:00,18.3,-11.6,29.74,West,261,16.1,17.4,25,0.00,,---,0.00,VWS V14.01,2013-01-31 06:46:00,
2013-01-31 00:51:00,18.3,-11.6,29.74,WSW,254,28.2,28.2,25,0.00,,---,0.00,VWS V14.01,2013-01-31 06:51:00,
2013-01-31 00:56:00,18.3,-11.6,29.74,West,265,16.1,16.6,25,0.00,,---,0.00,VWS V14.01,2013-01-31 06:56:00,
2013-01-31 01:01:00,18.3,-11.6,29.77,SSE,159,26.4,26.4,25,0.00,,---,0.00,VWS V14.01,2013-01-31 07:01:00,
2013-01-31 01:06:00,18.3,-11.6,29.77,WSW,241,17.4,25.5,25,0.00,,---,0.00,VWS V14.01,2013-01-31 07:06:00,
2013-01-31 01:11:00,18.3,-11.6,29.77,WSW,242,17.4,21.9,25,0.00,,---,0.00,VWS V14.01,2013-01-31 07:11:00,
2013-01-31 01:16:00,18.3,-11.6,29.77,SW,218,21.0,21.0,25,0.00,,---,0.00,VWS V14.01,2013-01-31 07:16:00,
2013-01-31 01:21:00,18.3,-11.6,29.77,WSW,238,16.1,21.0,25,0.00,,---,0.00,VWS V14.01,2013-01-31 07:21:00,
2013-01-31 01:26:00,18.3,-11.6,29.77,WSW,247,16.6,21.0,25,0.00,,---,0.00,VWS V14.01,2013-01-31 07:26:00,
2013-01-31 01:31:00,18.3,-11.6,29.77,SW,229,19.2,21.9,25,0.00,,---,0.00,VWS V14.01,2013-01-31 07:31:00,
2013-01-31 01:36:00,18.3,-11.6,29.77,SW,232,16.6,21.9,25,0.00,,---,0.00,VWS V14.01,2013-01-31 07:36:00,
2013-01-31 01:41:00,17.4,-10.1,29.77,SW,230,17.4,23.7,28,0.00,,---,0.00,VWS V14.01,2013-01-31 07:41:00,
2013-01-31 01:46:00,17.1,-10.4,29.80,SW,217,21.9,24.6,28,0.00,,---,0.00,VWS V14.01,2013-01-31 07:46:00,
2013-01-31 01:51:00,16.9,-12.1,29.80,West,271,16.1,20.1,26,0.00,,---,0.00,VWS V14.01,2013-01-31 07:51:00,
2013-01-31 01:56:00,16.7,-10.7,29.80,WSW,254,16.6,25.5,28,0.00,,---,0.00,VWS V14.01,2013-01-31 07:56:00,
2013-01-31 02:01:00,16.5,-10.9,29.80,West,267,21.0,26.4,28,0.00,,---,0.00,VWS V14.01,2013-01-31 08:01:00,
2013-01-31 02:06:00,16.7,-10.7,29.80,West,266,20.1,20.1,28,0.00,,---,0.00,VWS V14.01,2013-01-31 08:06:00,
2013-01-31 02:11:00,16.5,-12.4,29.80,WSW,249,21.9,29.1,26,0.00,,---,0.00,VWS V14.01,2013-01-31 08:11:00,
2013-01-31 02:16:00,16.5,-12.4,29.80,SW,233,26.4,26.4,26,0.00,,---,0.00,VWS V14.01,2013-01-31 08:16:00,
2013-01-31 02:21:00,16.2,-12.7,29.80,WSW,244,20.1,23.7,26,0.00,,---,0.00,VWS V14.01,2013-01-31 08:21:00,
2013-01-31 02:26:00,16.3,-12.5,29.80,West,264,21.9,24.6,26,0.00,,---,0.00,VWS V14.01,2013-01-31 08:26:00,
2013-01-31 02:31:00,16.3,-12.5,29.80,WSW,247,16.1,19.2,26,0.00,,---,0.00,VWS V14.01,2013-01-31 08:31:00,
2013-01-31 02:36:00,16.2,-12.7,29.80,WSW,244,20.1,24.6,26,0.00,,---,0.00,VWS V14.01,2013-01-31 08:36:00,
2013-01-31 02:41:00,16.5,-12.4,29.80,SW,233,30.0,30.0,26,0.00,,---,0.00,VWS V14.01,2013-01-31 08:41:00,
2013-01-31 02:46:00,16.5,-12.4,29.80,WSW,247,26.4,26.4,26,0.00,,---,0.00,VWS V14.01,2013-01-31 08:46:00,
2013-01-31 02:51:00,16.5,-12.4,29.80,WSW,237,15.2,16.1,26,0.00,,---,0.00,VWS V14.01,2013-01-31 08:51:00,
2013-01-31 02:56:00,16.5,-12.4,29.80,West,259,15.2,15.2,26,0.00,,---,0.00,VWS V14.01,2013-01-31 08:56:00,
2013-01-31 03:01:00,16.5,-12.4,29.80,SW,235,20.1,20.1,26,0.00,,---,0.00,VWS V14.01,2013-01-31 09:01:00,
2013-01-31 03:06:00,16.5,-12.4,29.80,WSW,255,11.6,15.2,26,0.00,,---,0.00,VWS V14.01,2013-01-31 09:06:00,
2013-01-31 03:11:00,16.5,-12.4,29.80,SSW,197,16.1,21.9,26,0.00,,---,0.00,VWS V14.01,2013-01-31 09:11:00,
2013-01-31 03:16:00,16.5,-12.4,29.80,WSW,254,23.7,23.7,26,0.00,,---,0.00,VWS V14.01,2013-01-31 09:16:00,
2013-01-31 03:21:00,16.5,-12.4,29.80,WSW,247,16.1,21.0,26,0.00,,---,0.00,VWS V14.01,2013-01-31 09:21:00,
2013-01-31 03:26:00,16.5,-12.4,29.80,West,260,15.2,17.4,26,0.00,,---,0.00,VWS V14.01,2013-01-31 09:26:00,
2013-01-31 03:31:00,16.5,-12.4,29.80,WSW,245,16.6,19.2,26,0.00,,---,0.00,VWS V14.01,2013-01-31 09:31:00,
2013-01-31 03:36:00,16.5,-12.4,29.80,WSW,252,16.1,17.4,26,0.00,,---,0.00,VWS V14.01,2013-01-31 09:36:00,
2013-01-31 03:41:00,16.5,-12.4,29.80,SW,227,16.6,20.1,26,0.00,,---,0.00,VWS V14.01,2013-01-31 09:41:00,
2013-01-31 03:46:00,16.5,-12.4,29.80,WSW,246,16.6,16.6,26,0.00,,---,0.00,VWS V14.01,2013-01-31 09:46:00,
2013-01-31 03:51:00,16.5,-12.4,29.80,WSW,252,21.0,21.0,26,0.00,,---,0.00,VWS V14.01,2013-01-31 09:51:00,
2013-01-31 03:56:00,16.5,-12.4,29.80,West,269,16.6,16.6,26,0.00,,---,0.00,VWS V14.01,2013-01-31 09:56:00,
2013-01-31 04:01:00,16.5,-12.4,29.80,SW,232,16.6,17.4,26,0.00,,---,0.00,VWS V14.01,2013-01-31 10:01:00,
2013-01-31 04:06:00,16.5,-12.4,29.80,WSW,252,13.4,17.4,26,0.00,,---,0.00,VWS V14.01,2013-01-31 10:06:00,
2013-01-31 04:11:00,16.5,-12.4,29.80,WSW,251,17.4,17.4,26,0.00,,---,0.00,VWS V14.01,2013-01-31 10:11:00,
2013-01-31 04:16:00,16.5,-12.4,29.80,SW,229,16.6,16.6,26,0.00,,---,0.00,VWS V14.01,2013-01-31 10:16:00,
2013-01-31 04:21:00,16.5,-12.4,29.80,WSW,251,20.1,20.1,26,0.00,,---,0.00,VWS V14.01,2013-01-31 10:21:00,
2013-01-31 04:26:00,16.5,-12.4,29.83,WSW,238,8.1,8.1,26,0.00,,---,0.00,VWS V14.01,2013-01-31 10:26:00,
2013-01-31 04:31:00,16.5,-12.4,29.83,WSW,252,16.1,16.1,26,0.00,,---,0.00,VWS V14.01,2013-01-31 10:31:00,
2013-01-31 04:36:00,16.5,-12.4,29.83,WSW,246,17.4,17.4,26,0.00,,---,0.00,VWS V14.01,2013-01-31 10:36:00,
2013-01-31 04:41:00,16.5,-12.4,29.83,WSW,243,21.0,21.0,26,0.00,,---,0.00,VWS V14.01,2013-01-31 10:41:00,
2013-01-31 04:46:00,16.5,-12.4,29.83,West,268,21.0,21.0,26,0.00,,---,0.00,VWS V14.01,2013-01-31 10:46:00,
2013-01-31 04:51:00,16.5,-12.4,29.83,West,260,16.1,16.6,26,0.00,,---,0.00,VWS V14.01,2013-01-31 10:51:00,
2013-01-31 04:56:00,16.5,-12.4,29.83,WSW,254,17.4,20.1,26,0.00,,---,0.00,VWS V14.01,2013-01-31 10:56:00,
2013-01-31 05:01:00,16.5,-12.4,29.83,WNW,284,21.9,21.9,26,0.00,,---,0.00,VWS V14.01,2013-01-31 11:01:00,
2013-01-31 05:06:00,16.5,-12.4,29.83,SW,233,21.0,21.0,26,0.00,,---,0.00,VWS V14.01,2013-01-31 11:06:00,
2013-01-31 05:11:00,16.5,-12.4,29.83,SW,229,16.1,21.9,26,0.00,,---,0.00,VWS V14.01,2013-01-31 11:11:00,
2013-01-31 05:16:00,16.5,-12.4,29.83,West,260,17.4,17.4,26,0.00,,---,0.00,VWS V14.01,2013-01-31 11:16:00,
2013-01-31 05:21:00,16.5,-12.4,29.83,WSW,255,10.7,10.7,26,0.00,,---,0.00,VWS V14.01,2013-01-31 11:21:00,
2013-01-31 05:26:00,16.5,-12.4,29.83,West,267,16.1,17.4,26,0.00,,---,0.00,VWS V14.01,2013-01-31 11:26:00,
2013-01-31 05:31:00,16.5,-12.4,29.85,WSW,258,16.1,20.1,26,0.00,,---,0.00,VWS V14.01,2013-01-31 11:31:00,
2013-01-31 05:36:00,16.5,-12.4,29.85,SW,226,13.4,13.4,26,0.00,,---,0.00,VWS V14.01,2013-01-31 11:36:00,
2013-01-31 05:41:00,16.5,-12.4,29.85,SW,235,16.1,16.6,26,0.00,,---,0.00,VWS V14.01,2013-01-31 11:41:00,
2013-01-31 05:46:00,16.5,-12.4,29.85,WSW,249,11.6,17.4,26,0.00,,---,0.00,VWS V14.01,2013-01-31 11:46:00,
2013-01-31 05:51:00,16.5,-12.4,29.85,West,270,10.7,11.6,26,0.00,,---,0.00,VWS V14.01,2013-01-31 11:51:00,
2013-01-31 05:56:00,16.5,-12.4,29.85,West,260,10.7,11.6,26,0.00,,---,0.00,VWS V14.01,2013-01-31 11:56:00,
2013-01-31 06:01:00,16.5,-12.4,29.83,WSW,243,11.6,17.4,26,0.00,,---,0.00,VWS V14.01,2013-01-31 12:01:00,
2013-01-31 06:06:00,16.5,-12.4,29.83,SSW,197,19.2,19.2,26,0.00,,---,0.00,VWS V14.01,2013-01-31 12:06:00,
2013-01-31 06:11:00,16.5,-12.4,29.83,WSW,241,11.6,13.4,26,0.00,,---,0.00,VWS V14.01,2013-01-31 12:11:00,
2013-01-31 06:16:00,16.5,-12.4,29.85,SSW,207,12.5,12.5,26,0.00,,---,0.00,VWS V14.01,2013-01-31 12:16:00,
2013-01-31 06:21:00,16.5,-12.4,29.85,SSW,202,11.6,17.4,26,0.00,,---,0.00,VWS V14.01,2013-01-31 12:21:00,
2013-01-31 06:26:00,16.5,-12.4,29.85,SW,232,20.1,20.1,26,0.00,,---,0.00,VWS V14.01,2013-01-31 12:26:00,
2013-01-31 06:31:00,16.5,-12.4,29.85,SW,236,16.1,16.1,26,0.00,,---,0.00,VWS V14.01,2013-01-31 12:31:00,
2013-01-31 06:36:00,16.5,-12.4,29.85,West,259,21.9,24.6,26,0.00,,---,0.00,VWS V14.01,2013-01-31 12:36:00,
2013-01-31 06:41:00,14.5,-14.1,29.85,West,268,17.4,17.4,26,0.00,,---,0.00,VWS V14.01,2013-01-31 12:41:00,
2013-01-31 06:46:00,14.2,-14.4,29.88,WSW,255,12.5,16.1,26,0.00,,---,0.00,VWS V14.01,2013-01-31 12:46:00,
2013-01-31 06:51:00,14.2,-14.4,29.88,West,263,25.5,30.0,26,0.00,,---,0.00,VWS V14.01,2013-01-31 12:51:00,
2013-01-31 06:56:00,14.2,-14.4,29.88,WSW,257,15.2,24.6,26,0.00,,---,0.00,VWS V14.01,2013-01-31 12:56:00,
2013-01-31 07:01:00,13.8,-14.0,29.88,WSW,257,21.0,21.0,27,0.00,,---,0.00,VWS V14.01,2013-01-31 13:01:00,
2013-01-31 07:06:00,13.6,-14.1,29.88,WSW,240,16.1,17.4,27,0.00,,---,0.00,VWS V14.01,2013-01-31 13:06:00,
2013-01-31 07:11:00,13.6,-14.1,29.88,West,279,21.0,24.6,27,0.00,,---,0.00,VWS V14.01,2013-01-31 13:11:00,
2013-01-31 07:16:00,13.5,-14.3,29.88,SW,235,11.6,21.0,27,0.00,,---,0.00,VWS V14.01,2013-01-31 13:16:00,
2013-01-31 07:21:00,13.5,-14.3,29.88,SW,236,17.4,17.4,27,0.00,,---,0.00,VWS V14.01,2013-01-31 13:21:00,
2013-01-31 07:26:00,13.5,-14.3,29.88,WSW,253,18.3,20.1,27,0.00,,---,0.00,VWS V14.01,2013-01-31 13:26:00,
2013-01-31 07:31:00,13.3,-14.4,29.88,West,266,16.1,16.1,27,0.00,,---,0.00,VWS V14.01,2013-01-31 13:31:00,
2013-01-31 07:36:00,13.5,-14.3,29.88,WSW,242,21.0,21.0,27,0.00,,---,0.00,VWS V14.01,2013-01-31 13:36:00,
2013-01-31 07:41:00,13.3,-14.4,29.88,West,276,11.6,17.4,27,0.00,,---,0.00,VWS V14.01,2013-01-31 13:41:00,
2013-01-31 07:46:00,13.3,-14.4,29.91,SW,231,16.6,16.6,27,0.00,,---,0.00,VWS V14.01,2013-01-31 13:46:00,
2013-01-31 07:51:00,13.3,-14.4,29.91,West,271,20.1,20.1,27,0.00,,---,0.00,VWS V14.01,2013-01-31 13:51:00,
2013-01-31 07:56:00,13.3,-14.4,29.91,West,264,16.6,22.8,27,0.00,,---,0.00,VWS V14.01,2013-01-31 13:56:00,
2013-01-31 08:01:00,13.3,-14.4,29.91,SW,234,11.6,16.6,27,0.00,,---,0.00,VWS V14.01,2013-01-31 14:01:00,
2013-01-31 08:06:00,13.3,-14.4,29.91,SW,233,13.4,16.6,27,0.00,,---,0.00,VWS V14.01,2013-01-31 14:06:00,
2013-01-31 08:11:00,13.3,-14.4,29.91,West,270,17.4,19.2,27,0.00,,---,0.00,VWS V14.01,2013-01-31 14:11:00,
2013-01-31 08:16:00,13.3,-14.4,29.91,WSW,252,16.1,16.1,27,0.00,,---,0.00,VWS V14.01,2013-01-31 14:16:00,
2013-01-31 08:21:00,13.3,-14.4,29.91,West,281,16.6,21.0,27,0.00,,---,0.00,VWS V14.01,2013-01-31 14:21:00,
2013-01-31 08:26:00,13.3,-14.4,29.91,NW,307,16.1,16.1,27,0.00,,---,0.00,VWS V14.01,2013-01-31 14:26:00,
2013-01-31 08:31:00,13.3,-14.4,29.91,WSW,238,15.2,15.2,27,0.00,,---,0.00,VWS V14.01,2013-01-31 14:31:00,
2013-01-31 08:36:00,13.3,-14.4,29.91,SSW,212,20.1,20.1,27,0.00,,---,0.00,VWS V14.01,2013-01-31 14:36:00,
2013-01-31 08:41:00,13.3,-14.4,29.91,West,260,17.4,17.4,27,0.00,,---,0.00,VWS V14.01,2013-01-31 14:41:00,
2013-01-31 08:46:00,13.3,-14.4,29.94,West,271,15.2,15.2,27,0.00,,---,0.00,VWS V14.01,2013-01-31 14:46:00,
2013-01-31 08:51:00,13.3,-14.4,29.94,West,266,18.3,18.3,27,0.00,,---,0.00,VWS V14.01,2013-01-31 14:51:00,
2013-01-31 08:56:00,13.3,-14.4,29.94,West,265,21.9,21.9,27,0.00,,---,0.00,VWS V14.01,2013-01-31 14:56:00,
2013-01-31 09:01:00,13.3,-14.4,29.94,West,259,15.2,15.2,27,0.00,,---,0.00,VWS V14.01,2013-01-31 15:01:00,
2013-01-31 09:06:00,13.3,-14.4,29.94,West,259,20.1,20.1,27,0.00,,---,0.00,VWS V14.01,2013-01-31 15:06:00,
2013-01-31 09:11:00,13.3,-14.4,29.94,WSW,245,11.6,11.6,27,0.00,,---,0.00,VWS V14.01,2013-01-31 15:11:00,
2013-01-31 09:16:00,13.3,-14.4,29.94,WSW,255,16.6,17.4,27,0.00,,---,0.00,VWS V14.01,2013-01-31 15:16:00,
2013-01-31 09:21:00,13.3,-14.4,29.94,WSW,253,16.1,21.0,27,0.00,,---,0.00,VWS V14.01,2013-01-31 15:21:00,
2013-01-31 09:26:00,13.3,-14.4,29.94,SW,226,15.2,15.2,27,0.00,,---,0.00,VWS V14.01,2013-01-31 15:26:00,
2013-01-31 09:31:00,13.3,-14.4,29.94,SW,236,16.6,16.6,27,0.00,,---,0.00,VWS V14.01,2013-01-31 15:31:00,
2013-01-31 09:36:00,13.3,-14.4,29.94,SW,235,16.6,17.4,27,0.00,,---,0.00,VWS V14.01,2013-01-31 15:36:00,
2013-01-31 09:41:00,13.3,-14.4,29.94,WSW,245,22.8,22.8,27,0.00,,---,0.00,VWS V14.01,2013-01-31 15:41:00,
2013-01-31 09:46:00,13.3,-14.4,29.94,SW,236,16.6,17.4,27,0.00,,---,0.00,VWS V14.01,2013-01-31 15:46:00,
2013-01-31 09:51:00,13.3,-14.4,29.94,West,261,16.6,16.6,27,0.00,,---,0.00,VWS V14.01,2013-01-31 15:51:00,
2013-01-31 09:56:00,13.3,-14.4,29.94,WSW,248,16.1,25.5,27,0.00,,---,0.00,VWS V14.01,2013-01-31 15:56:00,
2013-01-31 10:01:00,13.3,-14.4,29.94,SW,225,21.9,23.7,27,0.00,,---,0.00,VWS V14.01,2013-01-31 16:01:00,
2013-01-31 10:06:00,13.3,-14.4,29.94,WSW,240,26.4,26.4,27,0.00,,---,0.00,VWS V14.01,2013-01-31 16:06:00,
2013-01-31 10:11:00,15.4,-14.9,29.94,WSW,250,17.4,17.4,24,0.00,,---,0.00,VWS V14.01,2013-01-31 16:11:00,
2013-01-31 10:16:00,15.8,-14.6,29.94,SW,231,13.4,13.4,24,0.00,,---,0.00,VWS V14.01,2013-01-31 16:16:00,
2013-01-31 10:21:00,15.1,-15.2,29.94,West,265,24.6,25.5,24,0.00,,---,0.00,VWS V14.01,2013-01-31 16:21:00,
2013-01-31 10:26:00,15.3,-15.1,29.94,West,278,15.2,20.1,24,0.00,,---,0.00,VWS V14.01,2013-01-31 16:26:00,
2013-01-31 10:31:00,15.1,-15.2,29.97,West,263,21.9,21.9,24,0.00,,---,0.00,VWS V14.01,2013-01-31 16:31:00,
2013-01-31 10:36:00,15.8,-13.0,29.97,WSW,252,13.4,16.1,26,0.00,,---,0.00,VWS V14.01,2013-01-31 16:36:00,
2013-01-31 10:41:00,15.4,-14.9,29.97,SW,222,13.4,16.1,24,0.00,,---,0.00,VWS V14.01,2013-01-31 16:41:00,
2013-01-31 10:46:00,15.4,-14.9,29.97,WSW,250,16.1,16.1,24,0.00,,---,0.00,VWS V14.01,2013-01-31 16:46:00,
2013-01-31 10:51:00,15.4,-14.9,29.97,WSW,251,26.4,26.4,24,0.00,,---,0.00,VWS V14.01,2013-01-31 16:51:00,
2013-01-31 10:56:00,15.4,-14.9,29.97,SSW,195,16.6,21.9,24,0.00,,---,0.00,VWS V14.01,2013-01-31 16:56:00,
2013-01-31 11:01:00,15.4,-14.9,29.97,SW,229,16.1,18.3,24,0.00,,---,0.00,VWS V14.01,2013-01-31 17:01:00,
2013-01-31 11:06:00,15.4,-14.9,29.97,WSW,252,21.0,21.0,24,0.00,,---,0.00,VWS V14.01,2013-01-31 17:06:00,
2013-01-31 11:11:00,15.4,-14.9,29.97,WSW,239,20.1,20.1,24,0.00,,---,0.00,VWS V14.01,2013-01-31 17:11:00,
2013-01-31 11:16:00,15.4,-14.9,29.97,SW,231,11.6,17.4,24,0.00,,---,0.00,VWS V14.01,2013-01-31 17:16:00,
2013-01-31 11:21:00,15.4,-14.9,29.97,SW,220,16.6,16.6,24,0.00,,---,0.00,VWS V14.01,2013-01-31 17:21:00,
2013-01-31 11:26:00,15.4,-14.9,29.97,SW,224,17.4,19.2,24,0.00,,---,0.00,VWS V14.01,2013-01-31 17:26:00,
2013-01-31 11:31:00,15.4,-14.9,29.97,SSW,206,16.6,16.6,24,0.00,,---,0.00,VWS V14.01,2013-01-31 17:31:00,
2013-01-31 11:35:00,15.4,-14.9,29.97,SW,232,15.2,15.2,24,0.00,,---,0.00,VWS V14.01,2013-01-31 17:35:00,
2013-01-31 11:40:00,15.4,-14.9,29.97,SSW,208,15.2,21.9,24,0.00,,---,0.00,VWS V14.01,2013-01-31 17:40:00,
2013-01-31 11:46:00,15.4,-14.9,29.97,WSW,251,20.1,20.1,24,0.00,,---,0.00,VWS V14.01,2013-01-31 17:46:00,
2013-01-31 11:50:00,15.4,-14.9,29.97,WSW,254,16.6,21.0,24,0.00,,---,0.00,VWS V14.01,2013-01-31 17:50:00,
2013-01-31 11:55:00,15.4,-14.9,29.97,WSW,244,15.2,16.1,24,0.00,,---,0.00,VWS V14.01,2013-01-31 17:55:00,
2013-01-31 12:00:00,15.4,-14.9,29.97,WSW,241,20.1,20.1,24,0.00,,---,0.00,VWS V14.01,2013-01-31 18:00:00,
2013-01-31 12:05:00,15.4,-14.9,29.97,WSW,253,20.1,20.1,24,0.00,,---,0.00,VWS V14.01,2013-01-31 18:05:00,
2013-01-31 12:10:00,15.4,-14.9,29.97,West,260,15.2,16.6,24,0.00,,---,0.00,VWS V14.01,2013-01-31 18:10:00,
2013-01-31 12:15:00,15.4,-14.9,29.97,WSW,252,16.6,17.4,24,0.00,,---,0.00,VWS V14.01,2013-01-31 18:15:00,
2013-01-31 12:20:00,15.4,-14.9,29.97,West,259,15.2,21.0,24,0.00,,---,0.00,VWS V14.01,2013-01-31 18:20:00,
2013-01-31 12:25:00,15.4,-14.9,29.97,SSW,209,21.9,21.9,24,0.00,,---,0.00,VWS V14.01,2013-01-31 18:25:00,
2013-01-31 12:30:00,15.4,-14.9,29.97,WSW,239,24.6,26.4,24,0.00,,---,0.00,VWS V14.01,2013-01-31 18:30:00,
2013-01-31 12:35:00,15.4,-14.9,29.97,SW,227,15.2,21.9,24,0.00,,---,0.00,VWS V14.01,2013-01-31 18:35:00,
2013-01-31 12:40:00,15.4,-14.9,29.97,WSW,253,17.4,17.4,24,0.00,,---,0.00,VWS V14.01,2013-01-31 18:40:00,
2013-01-31 12:45:00,15.4,-14.9,30.00,WNW,283,21.9,21.9,24,0.00,,---,0.00,VWS V14.01,2013-01-31 18:45:00,
2013-01-31 12:50:00,15.4,-14.9,30.00,WSW,253,26.4,26.4,24,0.00,,---,0.00,VWS V14.01,2013-01-31 18:50:00,
2013-01-31 12:55:00,15.4,-14.9,30.00,WSW,238,16.6,18.3,24,0.00,,---,0.00,VWS V14.01,2013-01-31 18:55:00,
2013-01-31 13:00:00,15.4,-14.9,30.00,WSW,238,15.2,16.1,24,0.00,,---,0.00,VWS V14.01,2013-01-31 19:00:00,
2013-01-31 13:05:00,15.4,-14.9,30.00,WSW,238,15.2,17.4,24,0.00,,---,0.00,VWS V14.01,2013-01-31 19:05:00,
2013-01-31 13:10:00,15.4,-14.9,30.00,SW,227,15.2,23.7,24,0.00,,---,0.00,VWS V14.01,2013-01-31 19:10:00,
2013-01-31 13:15:00,15.4,-14.9,30.00,WSW,250,22.8,22.8,24,0.00,,---,0.00,VWS V14.01,2013-01-31 19:15:00,
2013-01-31 13:20:00,15.4,-14.9,30.00,West,271,21.0,21.0,24,0.00,,---,0.00,VWS V14.01,2013-01-31 19:20:00,
2013-01-31 13:25:00,15.4,-14.9,30.00,West,260,17.4,23.7,24,0.00,,---,0.00,VWS V14.01,2013-01-31 19:25:00,
2013-01-31 13:30:00,15.4,-14.9,29.97,WSW,257,16.6,26.4,24,0.00,,---,0.00,VWS V14.01,2013-01-31 19:30:00,
2013-01-31 13:35:00,15.4,-14.9,29.97,WSW,251,20.1,20.1,24,0.00,,---,0.00,VWS V14.01,2013-01-31 19:35:00,
2013-01-31 13:40:00,14.7,-15.5,29.97,West,264,16.6,21.0,24,0.00,,---,0.00,VWS V14.01,2013-01-31 19:40:00,
2013-01-31 13:45:00,14.5,-15.7,29.97,SW,223,21.0,21.0,24,0.00,,---,0.00,VWS V14.01,2013-01-31 19:45:00,
2013-01-31 13:50:00,14.5,-15.7,29.97,WSW,248,15.2,15.2,24,0.00,,---,0.00,VWS V14.01,2013-01-31 19:50:00,
2013-01-31 13:55:00,14.9,-15.4,29.97,WSW,250,17.4,20.1,24,0.00,,---,0.00,VWS V14.01,2013-01-31 19:55:00,
2013-01-31 14:00:00,14.5,-15.7,30.00,WNW,295,20.1,20.1,24,0.00,,---,0.00,VWS V14.01,2013-01-31 20:00:00,
2013-01-31 14:05:00,14.5,-15.7,30.00,West,259,20.1,20.1,24,0.00,,---,0.00,VWS V14.01,2013-01-31 20:05:00,
2013-01-31 14:10:00,14.4,-15.8,30.00,WSW,254,15.2,21.0,24,0.00,,---,0.00,VWS V14.01,2013-01-31 20:10:00,
2013-01-31 14:15:00,14.4,-15.8,30.00,WSW,257,16.6,16.6,24,0.00,,---,0.00,VWS V14.01,2013-01-31 20:15:00,
2013-01-31 14:20:00,14.4,-15.8,30.00,West,271,17.4,17.4,24,0.00,,---,0.00,VWS V14.01,2013-01-31 20:20:00,
2013-01-31 14:25:00,14.4,-15.8,30.00,WSW,248,25.5,25.5,24,0.00,,---,0.00,VWS V14.01,2013-01-31 20:25:00,
2013-01-31 14:30:00,14.4,-15.8,30.00,SW,233,16.6,20.1,24,0.00,,---,0.00,VWS V14.01,2013-01-31 20:30:00,
2013-01-31 14:35:00,14.4,-15.8,30.00,SW,231,17.4,20.1,24,0.00,,---,0.00,VWS V14.01,2013-01-31 20:35:00,
2013-01-31 14:40:00,14.4,-15.8,30.00,WSW,255,17.4,26.4,24,0.00,,---,0.00,VWS V14.01,2013-01-31 20:40:00,
2013-01-31 14:45:00,14.4,-15.8,30.00,WSW,254,16.1,16.6,24,0.00,,---,0.00,VWS V14.01,2013-01-31 20:45:00,
2013-01-31 14:50:00,14.4,-15.8,30.00,SW,236,16.1,16.1,24,0.00,,---,0.00,VWS V14.01,2013-01-31 20:50:00,
2013-01-31 14:55:00,14.4,-15.8,30.00,WSW,257,16.6,21.9,24,0.00,,---,0.00,VWS V14.01,2013-01-31 20:55:00,
2013-01-31 15:00:00,14.4,-15.8,30.00,WSW,244,27.3,27.3,24,0.00,,---,0.00,VWS V14.01,2013-01-31 21:00:00,
2013-01-31 15:05:00,14.4,-15.8,30.00,WSW,250,20.1,24.6,24,0.00,,---,0.00,VWS V14.01,2013-01-31 21:05:00,
2013-01-31 15:10:00,12.7,-17.2,30.00,WSW,248,24.6,30.9,24,0.00,,---,0.00,VWS V14.01,2013-01-31 21:10:00,
2013-01-31 15:15:00,12.4,-17.5,30.03,West,262,20.1,28.2,24,0.00,,---,0.00,VWS V14.01,2013-01-31 21:15:00,
2013-01-31 15:20:00,12.7,-17.2,30.03,SSW,212,21.0,21.9,24,0.00,,---,0.00,VWS V14.01,2013-01-31 21:20:00,
2013-01-31 15:25:00,12.6,-17.4,30.03,WNW,293,23.7,23.7,24,0.00,,---,0.00,VWS V14.01,2013-01-31 21:25:00,
2013-01-31 15:30:00,12.2,-17.7,30.03,West,281,16.1,20.1,24,0.00,,---,0.00,VWS V14.01,2013-01-31 21:30:00,
2013-01-31 15:35:00,12.7,-17.2,30.03,WSW,248,11.6,21.9,24,0.00,,---,0.00,VWS V14.01,2013-01-31 21:35:00,
2013-01-31 15:40:00,12.4,-17.5,30.03,WSW,253,24.6,24.6,24,0.00,,---,0.00,VWS V14.01,2013-01-31 21:40:00,
2013-01-31 15:45:00,12.4,-17.5,30.03,WSW,245,20.1,25.5,24,0.00,,---,0.00,VWS V14.01,2013-01-31 21:45:00,
2013-01-31 15:50:00,12.4,-17.5,30.03,WSW,258,17.4,30.9,24,0.00,,---,0.00,VWS V14.01,2013-01-31 21:50:00,
2013-01-31 15:55:00,12.4,-17.5,30.03,West,259,24.6,24.6,24,0.00,,---,0.00,VWS V14.01,2013-01-31 21:55:00,
2013-01-31 16:00:00,12.4,-17.5,30.06,West,270,16.1,16.6,24,0.00,,---,0.00,VWS V14.01,2013-01-31 22:00:00,
2013-01-31 16:05:00,12.4,-17.5,30.06,SSW,207,24.6,24.6,24,0.00,,---,0.00,VWS V14.01,2013-01-31 22:05:00,
2013-01-31 16:10:00,12.4,-17.5,30.06,West,259,21.0,26.4,24,0.00,,---,0.00,VWS V14.01,2013-01-31 22:10:00,
2013-01-31 16:15:00,12.4,-17.5,30.06,SSW,207,17.4,26.4,24,0.00,,---,0.00,VWS V14.01,2013-01-31 22:15:00,
2013-01-31 16:20:00,12.4,-17.5,30.06,WSW,241,16.6,20.1,24,0.00,,---,0.00,VWS V14.01,2013-01-31 22:20:00,
2013-01-31 16:25:00,12.4,-17.5,30.06,SW,230,16.6,18.3,24,0.00,,---,0.00,VWS V14.01,2013-01-31 22:25:00,
2013-01-31 16:30:00,12.4,-17.5,30.06,WSW,237,21.9,21.9,24,0.00,,---,0.00,VWS V14.01,2013-01-31 22:30:00,
2013-01-31 16:35:00,12.4,-17.5,30.06,WSW,244,20.1,21.9,24,0.00,,---,0.00,VWS V14.01,2013-01-31 22:35:00,
2013-01-31 16:40:00,12.4,-17.5,30.06,WSW,239,19.2,21.9,24,0.00,,---,0.00,VWS V14.01,2013-01-31 22:40:00,
2013-01-31 16:45:00,12.4,-17.5,30.06,WSW,242,21.0,25.5,24,0.00,,---,0.00,VWS V14.01,2013-01-31 22:45:00,
2013-01-31 16:50:00,12.4,-17.5,30.06,SW,227,24.6,25.5,24,0.00,,---,0.00,VWS V14.01,2013-01-31 22:50:00,
2013-01-31 16:55:00,12.4,-17.5,30.06,WSW,246,20.1,21.9,24,0.00,,---,0.00,VWS V14.01,2013-01-31 22:55:00,
2013-01-31 17:00:00,12.4,-17.5,30.06,West,271,16.6,20.1,24,0.00,,---,0.00,VWS V14.01,2013-01-31 23:00:00,
2013-01-31 17:05:00,12.4,-17.5,30.06,WSW,241,17.4,21.9,24,0.00,,---,0.00,VWS V14.01,2013-01-31 23:05:00,
2013-01-31 17:10:00,10.0,-19.5,30.06,WSW,245,20.1,22.8,24,0.00,,---,0.00,VWS V14.01,2013-01-31 23:10:00,
2013-01-31 17:15:00,10.0,-19.5,30.09,West,265,24.6,24.6,24,0.00,,---,0.00,VWS V14.01,2013-01-31 23:15:00,
2013-01-31 17:20:00,10.0,-19.5,30.09,SW,234,20.1,21.9,24,0.00,,---,0.00,VWS V14.01,2013-01-31 23:20:00,
2013-01-31 17:25:00,10.0,-19.5,30.09,WSW,256,16.6,16.6,24,0.00,,---,0.00,VWS V14.01,2013-01-31 23:25:00,
2013-01-31 17:30:00,9.7,-19.9,30.09,SW,236,18.3,26.4,24,0.00,,---,0.00,VWS V14.01,2013-01-31 23:30:00,
2013-01-31 17:35:00,9.3,-20.2,30.09,WSW,249,17.4,19.2,24,0.00,,---,0.00,VWS V14.01,2013-01-31 23:35:00,
2013-01-31 17:40:00,9.1,-20.3,30.09,West,274,26.4,26.4,24,0.00,,---,0.00,VWS V14.01,2013-01-31 23:40:00,
2013-01-31 17:45:00,9.1,-20.3,30.09,West,260,26.4,30.9,24,0.00,,---,0.00,VWS V14.01,2013-01-31 23:45:00,
2013-01-31 17:50:00,9.1,-20.3,30.09,WSW,251,16.1,20.1,24,0.00,,---,0.00,VWS V14.01,2013-01-31 23:50:00,
2013-01-31 17:55:00,8.8,-20.6,30.09,SW,232,30.0,31.8,24,0.00,,---,0.00,VWS V14.01,2013-01-31 23:55:00,
2013-01-31 18:00:00,9.0,-20.5,30.12,SSW,195,25.5,25.5,24,0.00,,---,0.00,VWS V14.01,2013-02-01 00:00:00,
2013-01-31 18:05:00,8.8,-20.6,30.12,West,263,20.1,20.1,24,0.00,,---,0.00,VWS V14.01,2013-02-01 00:05:00,
2013-01-31 18:10:00,8.8,-20.6,30.12,SW,236,17.4,22.8,24,0.00,,---,0.00,VWS V14.01,2013-02-01 00:10:00,
2013-01-31 18:15:00,8.8,-20.6,30.12,WSW,257,16.1,24.6,24,0.00,,---,0.00,VWS V14.01,2013-02-01 00:15:00,
2013-01-31 18:20:00,8.8,-20.6,30.12,WSW,254,10.7,16.6,24,0.00,,---,0.00,VWS V14.01,2013-02-01 00:20:00,
2013-01-31 18:25:00,8.8,-20.6,30.12,West,275,22.8,22.8,24,0.00,,---,0.00,VWS V14.01,2013-02-01 00:25:00,
2013-01-31 18:30:00,8.8,-20.6,30.12,WSW,246,17.4,21.9,24,0.00,,---,0.00,VWS V14.01,2013-02-01 00:30:00,
2013-01-31 18:35:00,8.8,-20.6,30.12,WSW,248,26.4,26.4,24,0.00,,---,0.00,VWS V14.01,2013-02-01 00:35:00,
2013-01-31 18:40:00,8.8,-20.6,30.12,West,274,24.6,24.6,24,0.00,,---,0.00,VWS V14.01,2013-02-01 00:40:00,
2013-01-31 18:45:00,8.8,-20.6,30.12,WSW,241,21.9,21.9,24,0.00,,---,0.00,VWS V14.01,2013-02-01 00:45:00,
2013-01-31 18:50:00,8.8,-20.6,30.12,West,266,14.3,17.4,24,0.00,,---,0.00,VWS V14.01,2013-02-01 00:50:00,
2013-01-31 18:55:00,8.8,-20.6,30.12,West,271,17.4,24.6,24,0.00,,---,0.00,VWS V14.01,2013-02-01 00:55:00,
2013-01-31 19:00:00,8.8,-20.6,30.12,SW,221,21.9,25.5,24,0.00,,---,0.00,VWS V14.01,2013-02-01 01:00:00,
2013-01-31 19:05:00,8.8,-20.6,30.12,WSW,247,16.6,16.6,24,0.00,,---,0.00,VWS V14.01,2013-02-01 01:05:00,
2013-01-31 19:10:00,8.8,-20.6,30.12,WSW,258,21.9,21.9,24,0.00,,---,0.00,VWS V14.01,2013-02-01 01:10:00,
2013-01-31 19:15:00,8.8,-20.6,30.15,West,259,17.4,20.1,24,0.00,,---,0.00,VWS V14.01,2013-02-01 01:15:00,
2013-01-31 19:20:00,8.8,-20.6,30.15,WSW,241,25.5,27.3,24,0.00,,---,0.00,VWS V14.01,2013-02-01 01:20:00,
2013-01-31 19:25:00,8.8,-20.6,30.15,West,263,26.4,26.4,24,0.00,,---,0.00,VWS V14.01,2013-02-01 01:25:00,
2013-01-31 19:30:00,8.8,-20.6,30.15,West,269,23.7,23.7,24,0.00,,---,0.00,VWS V14.01,2013-02-01 01:30:00,
2013-01-31 19:35:00,8.8,-20.6,30.15,WSW,252,16.6,21.0,24,0.00,,---,0.00,VWS V14.01,2013-02-01 01:35:00,
2013-01-31 19:40:00,8.8,-20.6,30.15,WSW,256,21.0,30.9,24,0.00,,---,0.00,VWS V14.01,2013-02-01 01:40:00,
2013-01-31 19:45:00,8.8,-20.6,30.15,WSW,239,21.9,21.9,24,0.00,,---,0.00,VWS V14.01,2013-02-01 01:45:00,
2013-01-31 19:50:00,8.8,-20.6,30.15,WSW,247,17.4,19.2,24,0.00,,---,0.00,VWS V14.01,2013-02-01 01:50:00,
2013-01-31 19:55:00,8.8,-20.6,30.15,SW,231,12.5,20.1,24,0.00,,---,0.00,VWS V14.01,2013-02-01 01:55:00,
2013-01-31 20:00:00,8.8,-20.6,30.15,West,261,16.6,21.0,24,0.00,,---,0.00,VWS V14.01,2013-02-01 02:00:00,
2013-01-31 20:05:00,8.8,-20.6,30.15,WSW,254,20.1,20.1,24,0.00,,---,0.00,VWS V14.01,2013-02-01 02:05:00,
2013-01-31 20:10:00,8.8,-20.6,30.15,West,279,20.1,20.1,24,0.00,,---,0.00,VWS V14.01,2013-02-01 02:10:00,
2013-01-31 20:15:00,8.8,-20.6,30.18,West,269,20.1,20.1,24,0.00,,---,0.00,VWS V14.01,2013-02-01 02:15:00,
2013-01-31 20:20:00,8.8,-20.6,30.18,WSW,249,20.1,25.5,24,0.00,,---,0.00,VWS V14.01,2013-02-01 02:20:00,
2013-01-31 20:25:00,8.8,-20.6,30.18,WSW,248,16.1,20.1,24,0.00,,---,0.00,VWS V14.01,2013-02-01 02:25:00,
2013-01-31 20:30:00,8.8,-20.6,30.18,West,268,21.0,21.0,24,0.00,,---,0.00,VWS V14.01,2013-02-01 02:30:00,
2013-01-31 20:35:00,8.8,-20.6,30.18,West,262,21.9,21.9,24,0.00,,---,0.00,VWS V14.01,2013-02-01 02:35:00,
2013-01-31 20:40:00,8.8,-20.6,30.18,WSW,240,17.4,21.9,24,0.00,,---,0.00,VWS V14.01,2013-02-01 02:40:00,
2013-01-31 20:45:00,8.8,-20.6,30.18,WNW,292,15.2,16.1,24,0.00,,---,0.00,VWS V14.01,2013-02-01 02:45:00,
2013-01-31 20:50:00,8.8,-20.6,30.18,WSW,245,17.4,30.0,24,0.00,,---,0.00,VWS V14.01,2013-02-01 02:50:00,
2013-01-31 20:55:00,8.8,-20.6,30.18,West,275,26.4,26.4,24,0.00,,---,0.00,VWS V14.01,2013-02-01 02:55:00,
2013-01-31 21:00:00,8.8,-20.6,30.21,WSW,243,16.6,17.4,24,0.00,,---,0.00,VWS V14.01,2013-02-01 03:00:00,
2013-01-31 21:05:00,8.8,-20.6,30.21,West,281,20.1,20.1,24,0.00,,---,0.00,VWS V14.01,2013-02-01 03:05:00,
2013-01-31 21:10:00,8.8,-20.6,30.21,SW,236,16.6,25.5,24,0.00,,---,0.00,VWS V14.01,2013-02-01 03:10:00,
2013-01-31 21:15:00,8.8,-20.6,30.21,WSW,238,16.6,16.6,24,0.00,,---,0.00,VWS V14.01,2013-02-01 03:15:00,
2013-01-31 21:20:00,8.8,-20.6,30.21,WSW,247,17.4,20.1,24,0.00,,---,0.00,VWS V14.01,2013-02-01 03:20:00,
2013-01-31 21:25:00,8.8,-20.6,30.21,West,269,22.8,22.8,24,0.00,,---,0.00,VWS V14.01,2013-02-01 03:25:00,
2013-01-31 21:30:00,8.8,0.0,30.21,WSW,248,16.6,21.0,0,0.00,,---,0.00,VWS V14.01,2013-02-01 03:30:00,
2013-01-31 21:35:00,8.8,0.0,30.21,West,260,17.4,21.9,0,0.00,,---,0.00,VWS V14.01,2013-02-01 03:35:00,
2013-01-31 21:40:00,8.8,0.0,30.21,SSW,212,20.1,24.6,0,0.00,,---,0.00,VWS V14.01,2013-02-01 03:40:00,
2013-01-31 21:45:00,8.8,0.0,30.21,WSW,250,15.2,15.2,0,0.00,,---,0.00,VWS V14.01,2013-02-01 03:45:00,
2013-01-31 21:50:00,8.8,0.0,30.21,West,262,17.4,17.4,0,0.00,,---,0.00,VWS V14.01,2013-02-01 03:50:00,
2013-01-31 21:55:00,8.8,0.0,30.21,West,263,21.0,21.0,0,0.00,,---,0.00,VWS V14.01,2013-02-01 03:55:00,
2013-01-31 22:00:00,8.8,0.0,30.24,West,272,21.9,22.8,0,0.00,,---,0.00,VWS V14.01,2013-02-01 04:00:00,
2013-01-31 22:05:00,8.8,0.0,30.24,SW,236,10.7,17.4,0,0.00,,---,0.00,VWS V14.01,2013-02-01 04:05:00,
2013-01-31 22:10:00,8.8,0.0,30.24,WNW,295,15.2,15.2,0,0.00,,---,0.00,VWS V14.01,2013-02-01 04:10:00,
2013-01-31 22:15:00,8.8,0.0,30.24,WSW,245,12.5,15.2,0,0.00,,---,0.00,VWS V14.01,2013-02-01 04:15:00,
2013-01-31 22:20:00,8.8,0.0,30.24,West,270,16.6,16.6,0,0.00,,---,0.00,VWS V14.01,2013-02-01 04:20:00,
2013-01-31 22:25:00,8.8,0.0,30.24,WSW,253,15.2,15.2,0,0.00,,---,0.00,VWS V14.01,2013-02-01 04:25:00,
2013-01-31 22:30:00,8.8,0.0,30.24,WNW,301,17.4,17.4,0,0.00,,---,0.00,VWS V14.01,2013-02-01 04:30:00,
2013-01-31 22:35:00,8.8,0.0,30.24,WSW,250,25.5,25.5,0,0.00,,---,0.00,VWS V14.01,2013-02-01 04:35:00,
2013-01-31 22:40:00,8.8,0.0,30.24,WNW,283,16.6,16.6,0,0.00,,---,0.00,VWS V14.01,2013-02-01 04:40:00,
2013-01-31 22:45:00,8.8,0.0,30.24,WSW,253,10.7,17.4,0,0.00,,---,0.00,VWS V14.01,2013-02-01 04:45:00,
2013-01-31 22:50:00,8.8,0.0,30.24,WSW,239,17.4,17.4,0,0.00,,---,0.00,VWS V14.01,2013-02-01 04:50:00,
2013-01-31 22:55:00,8.8,0.0,30.24,WSW,251,14.3,16.1,0,0.00,,---,0.00,VWS V14.01,2013-02-01 04:55:00,
2013-01-31 23:00:00,8.8,0.0,30.24,SW,233,17.4,17.4,0,0.00,,---,0.00,VWS V14.01,2013-02-01 05:00:00,
2013-01-31 23:01:00,8.8,0.0,30.24,WSW,258,17.4,17.4,0,0.00,,---,0.00,VWS V14.01,2013-02-01 05:01:00,
2013-01-31 23:06:00,8.8,0.0,30.24,WSW,240,16.1,20.1,0,0.00,,---,0.00,VWS V14.01,2013-02-01 05:06:00,
2013-01-31 23:11:00,8.8,0.0,30.24,WSW,251,16.1,17.4,0,0.00,,---,0.00,VWS V14.01,2013-02-01 05:11:00,
2013-01-31 23:16:00,8.8,0.0,30.24,West,281,13.4,13.4,0,0.00,,---,0.00,VWS V14.01,2013-02-01 05:16:00,
2013-01-31 23:21:00,8.8,0.0,30.24,WSW,253,15.2,20.1,0,0.00,,---,0.00,VWS V14.01,2013-02-01 05:21:00,
2013-01-31 23:26:00,8.8,0.0,30.24,WSW,249,15.2,21.9,0,0.00,,---,0.00,VWS V14.01,2013-02-01 05:26:00,
2013-01-31 23:31:00,8.8,0.0,30.24,WSW,253,11.6,16.1,0,0.00,,---,0.00,VWS V14.01,2013-02-01 05:31:00,
2013-01-31 23:36:00,8.8,0.0,30.24,WSW,248,17.4,19.2,0,0.00,,---,0.00,VWS V14.01,2013-02-01 05:36:00,
2013-01-31 23:41:00,8.8,0.0,30.24,WSW,239,16.1,19.2,0,0.00,,---,0.00,VWS V14.01,2013-02-01 05:41:00,
2013-01-31 23:46:00,8.8,0.0,30.24,West,266,21.9,21.9,0,0.00,,---,0.00,VWS V14.01,2013-02-01 05:46:00,
2013-01-31 23:51:00,8.8,0.0,30.24,West,260,12.5,15.2,0,0.00,,---,0.00,VWS V14.01,2013-02-01 05:51:00,
2013-01-31 23:56:00,8.8,0.0,30.24,West,266,13.4,16.1,0,0.00,,---,0.00,VWS V14.01,2013-02-01 05:56:00,